Startpagina
METAR-TAF:

METAR-TAF

Vliegvelden :

King Fahd International Airport

Dammam, Saoedi-Arabië

breedte: 26-28N, lengte: 049-47E, hoogte: 22 m

Actueel weer

Dit bericht is 1 uur en het 3 minuten geleden gemaakt, om 23:00 UTC
Weinig wind
Temperatuur 19°C
Vochtigheid 83%
Druk 1015 hPa
Zicht 10 km of meer
geen wolken onder 1500 m en geen cumulonimbus

METAR: OEDF 232300Z 00000KT CAVOK 19/16 Q1015 NOSIG

Tijdstip: 03:03 (00:03 UTC)

Verwachting

Dit bericht is 4 uur en het 3 minuten geleden gemaakt, om 20:00 UTC
Verwachting geldig van 24 om 00 UTC tot 25 om 06 UTC
Wind 7 kt uit het zuidzuidoosten
Zicht: 7000 m
Tijdelijke
van 24 om 00 UTC tot 24 om 05 UTC
Zicht: 4000 m
nevel
Kans 30% :
Tijdelijke
van 24 om 01 UTC tot 24 om 04 UTC
Zicht: 0800 m
mist
Wijzigt naar
van 24 om 06 UTC tot 24 om 08 UTC
Wind 15 kt uit het zuidzuidoosten

TAF: OEDF 232000Z 2400/2506 15007KT 7000 NSC TEMPO 2400/2405 4000 BR PROB30 TEMPO 2401/2404 0800 FG BECMG 2406/2408 15015KT

Waarnemingen en weersverwachtingen van meer dan 4000 vliegvelden (METAR en TAF).

De beschikbare stations zijn de gele en rode punten op de kaart.

Ga met uw muis naar het station om de naam te zien.

Klik dan om waarnemingen en weersverwachtingen te zien.

kaart wijzigen: klik op de groene knoppen met een zwart kruis om in te zoomen, op de groene knop met een streepje om uit te zoomen of op de groene pijlen voor aangrenzende kaarten.


METAR-TAF: